Kaszuby — C6XD6 — position and weather

sailwx.info

Track history (hours):
 
Tides and Currents Weather Stations Pressure Air Temp Water Temp Dewpoint Dewpoint Depression Visibility Wind Speed Wind Dir Waves Ship Positions

Kaszuby

Last reported at 2017-Apr-24 12:37 UTC. Time now 2017-May-23 18:51 UTC.
Position S 23°06' W 042°46'.
Warning: this ship's position is 29 days out of date.

Length 190 m; draft 10 m.

Type: Cargo ship. MMSI: 311005600.

Date/timePositionNaut miles runAvg speedWind from/ knotsBaromVisibWave heightAir tempDewpointWater temp
2017-Apr-24 12:37S 23°06' W 042°46'213.4
2017-Apr-24 12:28S 23°06' W 042°48'613.4
2017-Apr-24 12:00S 23°05' W 042°55'713.2
2017-Apr-24 11:30S 23°03' W 043°02'612.9
2017-Apr-24 11:00S 22°60' W 043°08'510.1
2017-Apr-24 10:30S 22°55' W 043°09'2 2.6
2017-Apr-24 09:54S 22°53' W 043°09'0 0.1
2017-Apr-24 09:30S 22°53' W 043°09'0 0.0
2017-Apr-24 09:00S 22°53' W 043°09'0 0.0
2017-Apr-24 08:30S 22°53' W 043°09'0 0.0
2017-Apr-24 08:00S 22°53' W 043°09'0 0.1
2017-Apr-24 07:30S 22°53' W 043°09'0 0.1
2017-Apr-24 07:00S 22°53' W 043°09'0 0.0
2017-Apr-24 06:30S 22°53' W 043°09'0 0.2
2017-Apr-24 06:00S 22°53' W 043°09'0 0.3
2017-Apr-24 05:30S 22°53' W 043°09'0 0.1
2017-Apr-24 05:00S 22°53' W 043°09'0 0.1
2017-Apr-24 04:30S 22°53' W 043°09'0 0.0
2017-Apr-24 04:00S 22°53' W 043°09'0 0.0
2017-Apr-24 03:30S 22°53' W 043°09'0 0.1
2017-Apr-24 03:00S 22°53' W 043°09'0 0.0
2017-Apr-24 02:30S 22°53' W 043°09'0 0.0
2017-Apr-24 02:00S 22°53' W 043°09'0 0.0
2017-Apr-24 01:30S 22°53' W 043°09'0 0.0
2017-Apr-24 01:00S 22°53' W 043°09'0 0.0
2017-Apr-24 00:30S 22°53' W 043°09'0 0.3
2017-Apr-24 00:00S 22°53' W 043°09'0 0.3
2017-Apr-23 23:30S 22°53' W 043°09'0 0.0
2017-Apr-23 23:00S 22°53' W 043°09'0 0.1
2017-Apr-23 22:30S 22°53' W 043°09'0 0.2
2017-Apr-23 22:00S 22°53' W 043°09'0 0.1
2017-Apr-23 21:30S 22°53' W 043°09'0 0.0
2017-Apr-23 21:00S 22°53' W 043°09'0 0.0
2017-Apr-23 20:30S 22°53' W 043°09'0 0.0
2017-Apr-23 20:00S 22°53' W 043°09'0 0.1
2017-Apr-23 19:30S 22°53' W 043°09'0 0.1
2017-Apr-23 19:00S 22°53' W 043°09'0 0.0
2017-Apr-23 18:30S 22°53' W 043°09'0 0.2
2017-Apr-23 18:00S 22°53' W 043°09'0 0.3
2017-Apr-23 17:30S 22°53' W 043°09'0 0.1
2017-Apr-23 16:54S 22°53' W 043°09'0 0.0
2017-Apr-23 16:30S 22°53' W 043°09'0 0.1
2017-Apr-23 16:00S 22°53' W 043°09'0 0.2
2017-Apr-23 15:30S 22°53' W 043°09'1 1.7
2017-Apr-23 15:00S 22°54' W 043°09'10 9.7
2017-Apr-23 14:00S 23°04' W 043°07'1 1.0
2017-Apr-23 13:26S 23°04' W 043°07'0 0.0
2017-Apr-23 12:50S 23°04' W 043°07'0 0.0
2017-Apr-23 11:14S 23°04' W 043°07'0 0.8
2017-Apr-23 10:52S 23°04' W 043°07'3 6.2
2017-Apr-23 10:27S 23°07' W 043°08'  
Track history (hours):
 
Tides and Currents Weather Stations Pressure Air Temp Water Temp Dewpoint Dewpoint Depression Visibility Wind Speed Wind Dir Waves Ship Positions

Kaszuby

Last reported at 2017-Apr-24 12:37 UTC. Time now 2017-May-23 18:51 UTC.
Position S 23°06' W 042°46'.
Warning: this ship's position is 29 days out of date.

Length 190 m; draft 10 m.

Type: Cargo ship. MMSI: 311005600.

Date/timePositionNaut miles runAvg speedWind from/ knotsBaromVisibWave heightAir tempDewpointWater temp
2017-Apr-24 12:37S 23°06' W 042°46'213.4
2017-Apr-24 12:28S 23°06' W 042°48'613.4
2017-Apr-24 12:00S 23°05' W 042°55'713.2
2017-Apr-24 11:30S 23°03' W 043°02'612.9
2017-Apr-24 11:00S 22°60' W 043°08'510.1
2017-Apr-24 10:30S 22°55' W 043°09'2 2.6
2017-Apr-24 09:54S 22°53' W 043°09'0 0.1
2017-Apr-24 09:30S 22°53' W 043°09'0 0.0
2017-Apr-24 09:00S 22°53' W 043°09'0 0.0
2017-Apr-24 08:30S 22°53' W 043°09'0 0.0
2017-Apr-24 08:00S 22°53' W 043°09'0 0.1
2017-Apr-24 07:30S 22°53' W 043°09'0 0.1
2017-Apr-24 07:00S 22°53' W 043°09'0 0.0
2017-Apr-24 06:30S 22°53' W 043°09'0 0.2
2017-Apr-24 06:00S 22°53' W 043°09'0 0.3
2017-Apr-24 05:30S 22°53' W 043°09'0 0.1
2017-Apr-24 05:00S 22°53' W 043°09'0 0.1
2017-Apr-24 04:30S 22°53' W 043°09'0 0.0
2017-Apr-24 04:00S 22°53' W 043°09'0 0.0
2017-Apr-24 03:30S 22°53' W 043°09'0 0.1
2017-Apr-24 03:00S 22°53' W 043°09'0 0.0
2017-Apr-24 02:30S 22°53' W 043°09'0 0.0
2017-Apr-24 02:00S 22°53' W 043°09'0 0.0
2017-Apr-24 01:30S 22°53' W 043°09'0 0.0
2017-Apr-24 01:00S 22°53' W 043°09'0 0.0
2017-Apr-24 00:30S 22°53' W 043°09'0 0.3
2017-Apr-24 00:00S 22°53' W 043°09'0 0.3
2017-Apr-23 23:30S 22°53' W 043°09'0 0.0
2017-Apr-23 23:00S 22°53' W 043°09'0 0.1
2017-Apr-23 22:30S 22°53' W 043°09'0 0.2
2017-Apr-23 22:00S 22°53' W 043°09'0 0.1
2017-Apr-23 21:30S 22°53' W 043°09'0 0.0
2017-Apr-23 21:00S 22°53' W 043°09'0 0.0
2017-Apr-23 20:30S 22°53' W 043°09'0 0.0
2017-Apr-23 20:00S 22°53' W 043°09'0 0.1
2017-Apr-23 19:30S 22°53' W 043°09'0 0.1
2017-Apr-23 19:00S 22°53' W 043°09'0 0.0
2017-Apr-23 18:30S 22°53' W 043°09'0 0.2
2017-Apr-23 18:00S 22°53' W 043°09'0 0.3
2017-Apr-23 17:30S 22°53' W 043°09'0 0.1
2017-Apr-23 16:54S 22°53' W 043°09'0 0.0
2017-Apr-23 16:30S 22°53' W 043°09'0 0.1
2017-Apr-23 16:00S 22°53' W 043°09'0 0.2
2017-Apr-23 15:30S 22°53' W 043°09'1 1.7
2017-Apr-23 15:00S 22°54' W 043°09'10 9.7
2017-Apr-23 14:00S 23°04' W 043°07'1 1.0
2017-Apr-23 13:26S 23°04' W 043°07'0 0.0
2017-Apr-23 12:50S 23°04' W 043°07'0 0.0
2017-Apr-23 11:14S 23°04' W 043°07'0 0.8
2017-Apr-23 10:52S 23°04' W 043°07'3 6.2
2017-Apr-23 10:27S 23°07' W 043°08'  

Dump ship's entire track history